createdAt,value
2019-01-29T00:02:29.275Z,2.40
2019-01-29T00:05:00.034Z,2.40
2019-01-29T00:07:32.311Z,2.40
2019-01-29T00:10:07.583Z,2.40
2019-01-29T00:12:38.752Z,2.40
2019-01-29T00:15:19.303Z,2.50
2019-01-29T00:17:52.311Z,2.40
2019-01-29T00:20:23.015Z,2.30
2019-01-29T00:23:02.951Z,2.30
2019-01-29T00:25:34.206Z,2.30
2019-01-29T00:28:06.703Z,2.30
2019-01-29T00:30:43.910Z,2.30
2019-01-29T00:33:18.176Z,2.40
2019-01-29T00:35:52.440Z,2.30
2019-01-29T00:38:26.584Z,2.40
2019-01-29T00:41:06.305Z,2.40
2019-01-29T00:43:40.901Z,2.40
2019-01-29T00:46:14.923Z,2.40
2019-01-29T00:48:50.574Z,2.40
2019-01-29T00:51:21.747Z,2.40
2019-01-29T00:53:57.676Z,2.40
2019-01-29T00:56:35.231Z,2.50
2019-01-29T00:59:13.470Z,2.40
2019-01-29T01:01:45.688Z,2.40
2019-01-29T01:04:19.549Z,2.40
2019-01-29T01:06:54.927Z,2.30
2019-01-29T01:09:27.355Z,2.30
2019-01-29T01:11:57.838Z,2.30
2019-01-29T01:14:28.418Z,2.30
2019-01-29T01:17:01.139Z,2.30
2019-01-29T01:19:31.330Z,2.30
2019-01-29T01:22:01.575Z,2.30
2019-01-29T01:24:31.678Z,2.30
2019-01-29T01:27:02.226Z,2.30
2019-01-29T01:29:32.554Z,2.30
2019-01-29T01:32:02.992Z,2.30
2019-01-29T01:34:34.813Z,2.30
2019-01-29T01:37:05.566Z,2.20
2019-01-29T01:39:35.600Z,2.20
2019-01-29T01:42:05.781Z,2.20
2019-01-29T01:44:35.840Z,2.20
2019-01-29T01:47:06.448Z,2.20
2019-01-29T01:49:36.461Z,2.30
2019-01-29T01:52:06.788Z,2.30
2019-01-29T01:54:38.469Z,2.30
2019-01-29T01:57:11.272Z,2.40
2019-01-29T01:59:41.293Z,2.40
2019-01-29T02:02:11.547Z,2.40
2019-01-29T02:04:41.608Z,2.40
2019-01-29T02:07:11.831Z,2.40
2019-01-29T02:09:42.079Z,2.40
2019-01-29T02:12:12.701Z,2.30
2019-01-29T02:14:42.809Z,2.30
2019-01-29T02:17:13.149Z,2.30
2019-01-29T02:19:43.246Z,2.30
2019-01-29T02:22:13.529Z,2.30
2019-01-29T02:24:45.141Z,2.40
2019-01-29T02:27:15.205Z,2.40
2019-01-29T02:29:47.821Z,2.40
2019-01-29T02:32:17.967Z,2.40
2019-01-29T02:34:48.004Z,2.40
2019-01-29T02:37:21.317Z,2.40
2019-01-29T02:39:51.334Z,2.40
2019-01-29T02:42:22.920Z,2.40
2019-01-29T02:44:53.017Z,2.40
2019-01-29T02:47:23.029Z,2.40
2019-01-29T02:49:53.152Z,2.30
2019-01-29T02:52:23.217Z,2.40
2019-01-29T02:54:53.301Z,2.40
2019-01-29T02:57:23.327Z,2.40
2019-01-29T02:59:53.416Z,2.40
2019-01-29T03:02:23.515Z,2.40
2019-01-29T03:04:53.693Z,2.40
2019-01-29T03:07:23.831Z,2.40
2019-01-29T03:09:54.117Z,2.50
2019-01-29T03:12:24.270Z,2.50
2019-01-29T03:14:54.488Z,2.60
2019-01-29T03:17:25.948Z,2.50
2019-01-29T03:20:02.732Z,2.50
2019-01-29T03:22:33.867Z,2.50
2019-01-29T03:25:06.747Z,2.50
2019-01-29T03:27:37.483Z,2.60
2019-01-29T03:30:09.217Z,2.50
2019-01-29T03:32:39.729Z,2.50
2019-01-29T03:35:10.088Z,2.60
2019-01-29T03:37:43.088Z,2.50
2019-01-29T03:40:15.995Z,2.60
2019-01-29T03:42:46.473Z,2.50
2019-01-29T03:45:17.814Z,2.50
2019-01-29T03:47:48.041Z,2.50
2019-01-29T03:50:20.577Z,2.50
2019-01-29T03:52:50.983Z,2.60
2019-01-29T03:55:21.608Z,2.60
2019-01-29T03:57:52.003Z,2.60
2019-01-29T04:00:28.738Z,2.50
2019-01-29T04:02:58.893Z,2.50
2019-01-29T04:05:29.277Z,2.50
2019-01-29T04:07:59.837Z,2.50
2019-01-29T04:10:31.212Z,2.50
2019-01-29T04:13:01.215Z,2.50
2019-01-29T04:15:31.405Z,2.50
2019-01-29T04:18:01.677Z,2.50
2019-01-29T04:20:31.994Z,2.50
2019-01-29T04:23:01.995Z,2.50
2019-01-29T04:25:32.078Z,2.50
2019-01-29T04:28:02.140Z,2.50
2019-01-29T04:30:32.108Z,2.50
2019-01-29T04:33:02.210Z,2.50
2019-01-29T04:35:32.163Z,2.50
2019-01-29T04:38:02.516Z,2.50
2019-01-29T04:40:32.942Z,2.40
2019-01-29T04:43:03.365Z,2.40
2019-01-29T04:45:33.592Z,2.50
2019-01-29T04:48:04.880Z,2.50
2019-01-29T04:50:36.317Z,2.50
2019-01-29T04:53:07.993Z,2.50
2019-01-29T04:55:38.322Z,2.50
2019-01-29T04:58:08.567Z,2.50
2019-01-29T05:00:39.966Z,2.50
2019-01-29T05:03:10.392Z,2.50
2019-01-29T05:05:40.859Z,2.50
2019-01-29T05:08:11.066Z,2.50
2019-01-29T05:10:41.395Z,2.50
2019-01-29T05:13:11.462Z,2.60
2019-01-29T05:15:41.585Z,2.60
2019-01-29T05:18:14.588Z,2.50
2019-01-29T05:20:44.809Z,2.50
2019-01-29T05:23:15.136Z,2.50
2019-01-29T05:25:45.762Z,2.50
2019-01-29T05:28:16.083Z,2.50
2019-01-29T05:30:47.548Z,2.60
2019-01-29T05:33:18.737Z,2.60
2019-01-29T05:35:50.487Z,2.60
2019-01-29T05:38:20.568Z,2.60
2019-01-29T05:40:50.813Z,2.70
2019-01-29T05:43:20.884Z,2.70
2019-01-29T05:45:50.973Z,2.70
2019-01-29T05:48:21.339Z,2.70
2019-01-29T05:50:51.402Z,2.70
2019-01-29T05:53:21.491Z,2.70
2019-01-29T05:55:51.612Z,2.70
2019-01-29T05:58:26.306Z,2.70
2019-01-29T06:00:59.589Z,2.60
2019-01-29T06:03:29.804Z,2.60
2019-01-29T06:05:59.829Z,2.60
2019-01-29T06:08:29.972Z,2.60
2019-01-29T06:11:02.512Z,2.70
2019-01-29T06:13:32.577Z,2.70
2019-01-29T06:16:02.818Z,2.80
2019-01-29T06:18:32.841Z,2.80
2019-01-29T06:21:03.138Z,2.80
2019-01-29T06:23:33.641Z,2.80
2019-01-29T06:26:04.107Z,2.80
2019-01-29T06:28:34.373Z,2.80
2019-01-29T06:31:04.744Z,2.80
2019-01-29T06:34:05.036Z,2.80
2019-01-29T06:36:50.692Z,2.80
2019-01-29T06:39:22.975Z,2.80
2019-01-29T06:42:00.741Z,2.80
2019-01-29T06:44:43.896Z,2.70
2019-01-29T06:47:15.280Z,2.60
2019-01-29T06:49:46.577Z,2.60
2019-01-29T06:52:23.846Z,2.70
2019-01-29T06:54:54.577Z,2.80
2019-01-29T06:57:27.321Z,2.70
2019-01-29T06:59:59.607Z,2.80
2019-01-29T07:02:29.826Z,2.80
2019-01-29T07:05:00.275Z,2.90
2019-01-29T07:07:30.749Z,2.80
2019-01-29T07:10:05.254Z,2.80
2019-01-29T07:12:35.572Z,2.80
2019-01-29T07:15:06.731Z,2.90
2019-01-29T07:17:40.266Z,2.80
2019-01-29T07:20:12.955Z,2.90
2019-01-29T07:22:43.577Z,2.90
2019-01-29T07:25:15.398Z,2.80
2019-01-29T07:27:45.849Z,2.90
2019-01-29T07:30:19.491Z,2.90
2019-01-29T07:32:49.904Z,2.90
2019-01-29T07:35:23.984Z,3.00
2019-01-29T07:37:54.408Z,2.90
2019-01-29T07:40:24.764Z,2.90
2019-01-29T07:42:55.016Z,2.90
2019-01-29T07:45:25.233Z,2.90
2019-01-29T07:47:57.500Z,3.00
2019-01-29T07:50:27.561Z,3.00
2019-01-29T07:52:58.080Z,3.00
2019-01-29T07:55:31.242Z,3.10
2019-01-29T07:58:01.473Z,3.10
2019-01-29T08:00:31.913Z,3.10
2019-01-29T08:03:02.529Z,3.10
2019-01-29T08:05:33.996Z,3.10
2019-01-29T08:08:04.744Z,3.10
2019-01-29T08:10:35.325Z,3.20
2019-01-29T08:13:08.105Z,3.20
2019-01-29T08:15:38.365Z,3.20
2019-01-29T08:18:09.619Z,3.30
2019-01-29T08:20:40.091Z,3.30
2019-01-29T08:23:20.264Z,3.30
2019-01-29T08:25:53.865Z,3.30
2019-01-29T08:28:24.250Z,3.40
2019-01-29T08:30:55.063Z,3.30
2019-01-29T08:33:25.576Z,3.30
2019-01-29T08:35:59.255Z,3.40
2019-01-29T08:38:29.730Z,3.40
2019-01-29T08:41:04.487Z,3.50
2019-01-29T08:43:34.871Z,3.60
2019-01-29T08:46:05.563Z,3.60
2019-01-29T08:48:38.775Z,3.60
2019-01-29T08:51:09.077Z,3.70
2019-01-29T08:53:39.299Z,3.80
2019-01-29T08:56:18.031Z,3.80
2019-01-29T08:58:54.213Z,3.90
2019-01-29T09:01:27.998Z,4.00
2019-01-29T09:03:58.873Z,4.00
2019-01-29T09:06:30.428Z,4.00
2019-01-29T09:09:01.156Z,4.10
2019-01-29T09:11:31.503Z,4.20
2019-01-29T09:14:03.399Z,4.20
2019-01-29T09:16:36.551Z,4.20
2019-01-29T09:19:06.670Z,4.20
2019-01-29T09:21:40.046Z,4.20
2019-01-29T09:24:11.777Z,4.20
2019-01-29T09:26:44.563Z,4.20
2019-01-29T09:29:17.775Z,4.30
2019-01-29T09:31:47.068Z,4.30
2019-01-29T09:34:17.520Z,4.30
2019-01-29T09:36:50.914Z,4.40
2019-01-29T09:39:23.292Z,4.50
2019-01-29T09:41:54.023Z,4.60
2019-01-29T09:44:24.406Z,4.70
2019-01-29T09:46:57.504Z,4.80
2019-01-29T09:49:28.042Z,4.70
2019-01-29T09:51:58.208Z,4.50
2019-01-29T09:54:28.617Z,4.50
2019-01-29T09:56:59.178Z,4.50
2019-01-29T09:59:30.387Z,4.50
2019-01-29T10:02:09.016Z,4.60
2019-01-29T10:04:46.061Z,4.60
2019-01-29T10:07:21.327Z,4.60
2019-01-29T10:09:56.901Z,4.60
2019-01-29T10:12:34.011Z,4.60
2019-01-29T10:15:08.319Z,4.60
2019-01-29T10:17:38.857Z,4.50
2019-01-29T10:20:14.282Z,4.50
2019-01-29T10:22:44.514Z,4.60
2019-01-29T10:25:17.738Z,4.60
2019-01-29T10:27:47.827Z,4.70
2019-01-29T10:30:19.805Z,4.80
2019-01-29T10:32:51.220Z,4.80
2019-01-29T10:35:22.541Z,4.80
2019-01-29T10:37:56.359Z,4.80
2019-01-29T10:40:27.211Z,4.80
2019-01-29T10:43:01.367Z,5.00
2019-01-29T10:45:32.474Z,5.00
2019-01-29T10:48:09.374Z,5.20
2019-01-29T10:50:47.888Z,5.20
2019-01-29T10:53:21.370Z,5.30
2019-01-29T10:55:55.247Z,5.30
2019-01-29T10:58:25.732Z,5.40
2019-01-29T11:01:00.669Z,5.70
2019-01-29T11:03:32.102Z,5.90
2019-01-29T11:06:03.241Z,6.10
2019-01-29T11:08:33.656Z,6.20
2019-01-29T11:11:05.822Z,6.30
2019-01-29T11:13:36.877Z,6.30
2019-01-29T11:16:07.354Z,6.30
2019-01-29T11:18:38.693Z,6.30
2019-01-29T11:21:12.013Z,6.30
2019-01-29T11:23:45.874Z,6.10
2019-01-29T11:26:19.860Z,6.10
2019-01-29T11:28:50.959Z,6.10
2019-01-29T11:31:22.778Z,6.00
2019-01-29T11:33:57.994Z,6.10
2019-01-29T11:36:28.692Z,6.30
2019-01-29T11:38:59.573Z,6.30
2019-01-29T11:41:30.178Z,6.20
2019-01-29T11:44:04.601Z,6.10
2019-01-29T11:46:41.758Z,6.00
2019-01-29T11:49:14.640Z,6.10
2019-01-29T11:51:45.190Z,6.30
2019-01-29T11:54:20.344Z,6.40
2019-01-29T11:56:50.571Z,6.40
2019-01-29T11:59:21.103Z,6.30
2019-01-29T12:01:52.294Z,6.00
2019-01-29T12:04:24.282Z,6.10
2019-01-29T12:06:55.558Z,6.40
2019-01-29T12:09:29.338Z,6.60
2019-01-29T12:12:05.449Z,6.70
2019-01-29T12:14:39.596Z,6.80
2019-01-29T12:17:14.025Z,6.60
2019-01-29T12:19:46.259Z,6.70
2019-01-29T12:22:22.075Z,6.80
2019-01-29T12:24:53.977Z,6.60
2019-01-29T12:27:34.210Z,6.60
2019-01-29T12:30:06.895Z,6.50
2019-01-29T12:32:40.760Z,6.50
2019-01-29T12:35:16.402Z,6.60
2019-01-29T12:37:46.862Z,6.70
2019-01-29T12:40:17.254Z,6.80
2019-01-29T12:42:47.480Z,6.80
2019-01-29T12:45:18.424Z,6.70
2019-01-29T12:47:50.331Z,6.50
2019-01-29T12:50:29.919Z,6.40
2019-01-29T12:53:06.603Z,6.40
2019-01-29T12:55:38.190Z,6.30
2019-01-29T12:58:13.201Z,6.40
2019-01-29T13:00:47.185Z,6.40
2019-01-29T13:03:18.726Z,6.40
2019-01-29T13:05:55.889Z,6.80
2019-01-29T13:08:33.289Z,7.10
2019-01-29T13:11:04.232Z,7.20
2019-01-29T13:13:36.892Z,7.20
2019-01-29T13:16:10.595Z,7.20
2019-01-29T13:18:44.868Z,7.20
2019-01-29T13:21:15.471Z,7.00
2019-01-29T13:23:47.927Z,7.30
2019-01-29T13:26:19.875Z,7.90
2019-01-29T13:28:54.200Z,8.60
2019-01-29T13:31:30.469Z,9.00
2019-01-29T13:34:10.789Z,9.00
2019-01-29T13:36:52.040Z,8.60
2019-01-29T13:39:28.420Z,8.60
2019-01-29T13:42:02.393Z,8.80
2019-01-29T13:44:38.994Z,8.70
2019-01-29T13:47:14.168Z,8.40
2019-01-29T13:49:46.519Z,8.40
2019-01-29T13:52:23.321Z,8.20
2019-01-29T13:54:56.838Z,8.20
2019-01-29T13:57:31.363Z,8.30
2019-01-29T14:00:05.822Z,8.30
2019-01-29T14:02:46.675Z,7.70
2019-01-29T14:05:19.339Z,7.30
2019-01-29T14:07:52.529Z,7.30
2019-01-29T14:10:27.710Z,7.90
2019-01-29T14:12:58.443Z,7.90
2019-01-29T14:15:37.138Z,7.50
2019-01-29T14:18:08.374Z,6.70
2019-01-29T14:21:03.301Z,6.20
2019-01-29T14:23:36.484Z,5.80
2019-01-29T14:26:13.371Z,6.00
2019-01-29T14:28:48.166Z,6.10
2019-01-29T14:31:18.934Z,6.10
2019-01-29T14:33:49.706Z,6.00
2019-01-29T14:36:32.162Z,5.90
2019-01-29T14:39:35.191Z,5.90
2019-01-29T14:42:13.180Z,5.60
2019-01-29T14:44:50.850Z,5.60
2019-01-29T14:47:30.499Z,5.70
2019-01-29T14:50:09.325Z,5.30
2019-01-29T14:52:47.171Z,5.10
2019-01-29T14:55:20.135Z,5.20
2019-01-29T14:57:54.550Z,5.10
2019-01-29T15:00:28.199Z,5.00
2019-01-29T15:03:03.036Z,4.90
2019-01-29T15:05:37.385Z,5.00
2019-01-29T15:08:18.968Z,5.00
2019-01-29T15:10:50.220Z,5.00
2019-01-29T15:13:37.858Z,5.10
2019-01-29T15:16:43.355Z,5.00
2019-01-29T15:19:18.567Z,5.00
2019-01-29T15:21:50.191Z,4.90
2019-01-29T15:24:21.371Z,4.80
2019-01-29T15:26:55.316Z,4.80
2019-01-29T15:29:26.181Z,4.70
2019-01-29T15:31:57.446Z,4.70
2019-01-29T15:34:28.477Z,4.50
2019-01-29T15:37:01.311Z,4.40
2019-01-29T15:39:36.839Z,4.40
2019-01-29T15:42:07.944Z,4.30
2019-01-29T15:44:38.785Z,4.30
2019-01-29T15:47:12.147Z,4.20
2019-01-29T15:49:45.916Z,4.10
2019-01-29T15:52:21.446Z,4.10
2019-01-29T15:54:54.501Z,4.00
2019-01-29T15:57:34.194Z,4.00
2019-01-29T16:00:13.980Z,3.90
2019-01-29T16:02:46.528Z,3.90
2019-01-29T16:05:30.209Z,3.90
2019-01-29T16:08:10.500Z,3.80
2019-01-29T16:10:49.140Z,3.80
2019-01-29T16:13:23.713Z,3.70
2019-01-29T16:15:55.480Z,3.70
2019-01-29T16:18:26.629Z,3.70
2019-01-29T16:20:59.075Z,3.60
2019-01-29T16:23:36.973Z,3.60
2019-01-29T16:26:21.565Z,3.60
2019-01-29T16:29:01.626Z,3.50
2019-01-29T16:31:44.019Z,3.50
2019-01-29T16:34:21.019Z,3.50
2019-01-29T16:36:58.762Z,3.40
2019-01-29T16:39:34.113Z,3.40
2019-01-29T16:42:09.729Z,3.50
2019-01-29T16:44:47.812Z,3.50
2019-01-29T16:47:18.394Z,3.50
2019-01-29T16:49:49.181Z,3.50
2019-01-29T16:52:28.733Z,3.50
2019-01-29T16:55:13.652Z,3.40
2019-01-29T16:57:53.432Z,3.50
2019-01-29T17:00:36.703Z,3.60
2019-01-29T17:03:11.296Z,3.70
2019-01-29T17:05:48.309Z,3.70
2019-01-29T17:08:26.534Z,3.80
2019-01-29T17:11:12.647Z,3.90
2019-01-29T17:13:48.808Z,3.80
2019-01-29T17:16:22.435Z,3.90
2019-01-29T17:18:54.912Z,3.90
2019-01-29T17:21:28.257Z,4.00
2019-01-29T17:24:01.437Z,4.00
2019-01-29T17:26:40.292Z,4.00
2019-01-29T17:29:12.492Z,4.00
2019-01-29T17:32:02.017Z,3.90
2019-01-29T17:34:52.944Z,3.80
2019-01-29T17:37:29.888Z,3.70
2019-01-29T17:40:11.401Z,3.70
2019-01-29T17:42:54.182Z,3.80
2019-01-29T17:45:35.311Z,3.80
2019-01-29T17:48:09.295Z,3.80
2019-01-29T17:50:56.127Z,3.80
2019-01-29T17:53:37.329Z,3.80
2019-01-29T17:56:15.365Z,3.80
2019-01-29T17:58:50.062Z,3.80
2019-01-29T18:01:24.661Z,3.80
2019-01-29T18:04:02.455Z,3.80
2019-01-29T18:06:37.220Z,3.80
2019-01-29T18:09:18.068Z,3.80
2019-01-29T18:11:49.866Z,3.90
2019-01-29T18:14:29.333Z,3.80
2019-01-29T18:17:02.472Z,3.90
2019-01-29T18:19:44.258Z,4.00
2019-01-29T18:22:38.548Z,4.10
2019-01-29T18:25:11.250Z,4.00
2019-01-29T18:28:00.663Z,3.90
2019-01-29T18:30:41.337Z,3.90
2019-01-29T18:33:16.524Z,3.90
2019-01-29T18:36:06.297Z,3.90
2019-01-29T18:38:55.423Z,3.70
2019-01-29T18:41:28.603Z,3.70
2019-01-29T18:44:01.935Z,3.70
2019-01-29T18:46:34.532Z,3.60
2019-01-29T18:49:06.252Z,3.60
2019-01-29T18:51:43.598Z,3.60
2019-01-29T18:54:18.576Z,3.70
2019-01-29T18:56:57.960Z,3.60
2019-01-29T18:59:39.279Z,3.70
2019-01-29T19:02:11.015Z,3.70
2019-01-29T19:04:51.823Z,3.70
2019-01-29T19:07:25.422Z,3.70
2019-01-29T19:10:19.527Z,3.70
2019-01-29T19:12:55.361Z,3.70
2019-01-29T19:15:29.356Z,3.70
2019-01-29T19:18:14.830Z,3.70
2019-01-29T19:20:57.150Z,3.70
2019-01-29T19:23:31.862Z,3.70
2019-01-29T19:26:07.784Z,3.70
2019-01-29T19:28:41.827Z,3.70
2019-01-29T19:31:13.798Z,3.70
2019-01-29T19:34:05.351Z,3.70
2019-01-29T19:36:37.260Z,3.80
2019-01-29T19:39:18.960Z,3.60
2019-01-29T19:41:58.151Z,3.60
2019-01-29T19:44:30.037Z,3.50
2019-01-29T19:47:01.882Z,3.50
2019-01-29T19:49:36.306Z,3.50
2019-01-29T19:52:12.696Z,3.50
2019-01-29T19:54:44.593Z,3.50
2019-01-29T19:57:27.295Z,3.50
2019-01-29T20:00:08.620Z,3.40
2019-01-29T20:02:40.652Z,3.40
2019-01-29T20:05:16.344Z,3.40
2019-01-29T20:07:58.875Z,3.40
2019-01-29T20:10:36.458Z,3.40
2019-01-29T20:13:10.612Z,3.50
2019-01-29T20:15:58.112Z,3.50
2019-01-29T20:18:40.120Z,3.50
2019-01-29T20:21:14.419Z,3.50
2019-01-29T20:23:51.819Z,3.50
2019-01-29T20:26:24.361Z,3.50
2019-01-29T20:28:58.746Z,3.50
2019-01-29T20:31:30.642Z,3.50
2019-01-29T20:34:06.488Z,3.50
2019-01-29T20:36:42.366Z,3.50
2019-01-29T20:39:35.237Z,3.40
2019-01-29T20:42:10.662Z,3.50
2019-01-29T20:44:44.166Z,3.40
2019-01-29T20:47:14.475Z,3.50
2019-01-29T20:49:53.281Z,3.50
2019-01-29T20:52:43.283Z,3.50
2019-01-29T20:55:15.865Z,3.50
2019-01-29T20:58:08.014Z,3.40
2019-01-29T21:00:45.651Z,3.40
2019-01-29T21:03:19.013Z,3.40
2019-01-29T21:05:55.251Z,3.30
2019-01-29T21:08:37.590Z,3.30
2019-01-29T21:11:21.522Z,3.20
2019-01-29T21:14:03.363Z,3.20
2019-01-29T21:16:39.155Z,3.20
2019-01-29T21:19:12.320Z,3.20
2019-01-29T21:22:00.367Z,3.20
2019-01-29T21:24:31.424Z,3.20
2019-01-29T21:27:11.512Z,3.20
2019-01-29T21:29:58.913Z,3.20
2019-01-29T21:32:37.766Z,3.20
2019-01-29T21:35:13.788Z,3.10
2019-01-29T21:37:54.642Z,3.10
2019-01-29T21:40:37.279Z,3.10
2019-01-29T21:43:14.177Z,3.20
2019-01-29T21:45:53.098Z,3.20
2019-01-29T21:48:27.477Z,3.10
2019-01-29T21:50:59.653Z,3.10
2019-01-29T21:53:34.909Z,3.10
2019-01-29T21:56:14.700Z,3.10
2019-01-29T21:58:47.850Z,3.20
2019-01-29T22:01:31.452Z,3.10
2019-01-29T22:04:05.610Z,3.10
2019-01-29T22:06:37.836Z,3.10
2019-01-29T22:09:12.061Z,3.00
2019-01-29T22:11:46.792Z,3.00
2019-01-29T22:14:19.457Z,3.00
2019-01-29T22:16:59.346Z,2.90
2019-01-29T22:19:45.363Z,3.00
2019-01-29T22:22:36.842Z,2.90
2019-01-29T22:25:30.936Z,2.80
2019-01-29T22:28:15.346Z,2.70
2019-01-29T22:30:52.442Z,2.70
2019-01-29T22:33:25.602Z,2.60
2019-01-29T22:35:59.080Z,2.50
2019-01-29T22:38:30.676Z,2.50
2019-01-29T22:41:12.207Z,2.50
2019-01-29T22:43:43.796Z,2.40
2019-01-29T22:46:18.690Z,2.40
2019-01-29T22:48:53.927Z,2.40
2019-01-29T22:51:27.478Z,2.40
2019-01-29T22:54:00.463Z,2.40
2019-01-29T22:56:31.394Z,2.40
2019-01-29T22:59:06.814Z,2.30
2019-01-29T23:01:42.018Z,2.30
2019-01-29T23:04:31.707Z,2.30
2019-01-29T23:07:32.180Z,2.20
2019-01-29T23:10:16.002Z,2.20
2019-01-29T23:12:56.032Z,2.20
2019-01-29T23:15:29.804Z,2.20
2019-01-29T23:18:00.849Z,2.20
2019-01-29T23:20:39.408Z,2.20
2019-01-29T23:23:09.956Z,2.20
2019-01-29T23:25:42.245Z,2.10
2019-01-29T23:28:13.816Z,2.10
2019-01-29T23:30:44.193Z,2.20
2019-01-29T23:33:18.965Z,2.20
2019-01-29T23:35:56.143Z,2.20
2019-01-29T23:38:27.404Z,2.20
2019-01-29T23:40:58.333Z,2.10
2019-01-29T23:43:28.891Z,2.10
2019-01-29T23:45:59.375Z,2.10
2019-01-29T23:48:29.478Z,2.10
2019-01-29T23:51:00.266Z,2.10
2019-01-29T23:53:42.600Z,2.10
2019-01-29T23:56:24.021Z,2.10
2019-01-29T23:58:54.756Z,2.10
